sensor_id;sensor_type;location;lat;lon;timestamp;temperature;humidity
45843;DHT22;31563;51.744;8.252;2023-02-24T00:00:26;19.30;54.20
45843;DHT22;31563;51.744;8.252;2023-02-24T00:03:04;19.30;54.20
45843;DHT22;31563;51.744;8.252;2023-02-24T00:05:37;19.30;54.10
45843;DHT22;31563;51.744;8.252;2023-02-24T00:08:11;19.30;54.10
45843;DHT22;31563;51.744;8.252;2023-02-24T00:10:39;19.20;54.20
45843;DHT22;31563;51.744;8.252;2023-02-24T00:13:08;19.20;54.20
45843;DHT22;31563;51.744;8.252;2023-02-24T00:15:38;19.20;54.20
45843;DHT22;31563;51.744;8.252;2023-02-24T00:18:06;19.20;54.20
45843;DHT22;31563;51.744;8.252;2023-02-24T00:20:34;19.20;54.20
45843;DHT22;31563;51.744;8.252;2023-02-24T00:23:03;19.20;54.20
45843;DHT22;31563;51.744;8.252;2023-02-24T00:25:32;19.20;54.10
45843;DHT22;31563;51.744;8.252;2023-02-24T00:28:00;19.20;54.20
45843;DHT22;31563;51.744;8.252;2023-02-24T00:30:29;19.20;54.20
45843;DHT22;31563;51.744;8.252;2023-02-24T00:32:59;19.10;54.00
45843;DHT22;31563;51.744;8.252;2023-02-24T00:35:29;19.10;54.10
45843;DHT22;31563;51.744;8.252;2023-02-24T00:37:57;19.10;54.10
45843;DHT22;31563;51.744;8.252;2023-02-24T00:40:25;19.00;54.00
45843;DHT22;31563;51.744;8.252;2023-02-24T00:42:57;19.00;54.00
45843;DHT22;31563;51.744;8.252;2023-02-24T00:45:25;19.00;54.10
45843;DHT22;31563;51.744;8.252;2023-02-24T00:47:56;19.00;54.10
45843;DHT22;31563;51.744;8.252;2023-02-24T00:50:25;18.90;54.10
45843;DHT22;31563;51.744;8.252;2023-02-24T00:52:53;18.90;54.20
45843;DHT22;31563;51.744;8.252;2023-02-24T00:55:21;18.90;54.20
45843;DHT22;31563;51.744;8.252;2023-02-24T00:57:49;18.90;54.20
45843;DHT22;31563;51.744;8.252;2023-02-24T01:00:20;18.80;54.10
45843;DHT22;31563;51.744;8.252;2023-02-24T01:02:49;18.80;54.20
45843;DHT22;31563;51.744;8.252;2023-02-24T01:05:18;18.80;54.10
45843;DHT22;31563;51.744;8.252;2023-02-24T01:07:47;18.80;54.10
45843;DHT22;31563;51.744;8.252;2023-02-24T01:10:15;18.80;54.10
45843;DHT22;31563;51.744;8.252;2023-02-24T01:12:44;18.80;54.10
45843;DHT22;31563;51.744;8.252;2023-02-24T01:15:22;18.80;54.10
45843;DHT22;31563;51.744;8.252;2023-02-24T01:17:50;18.80;54.10
45843;DHT22;31563;51.744;8.252;2023-02-24T01:20:18;18.80;54.10
45843;DHT22;31563;51.744;8.252;2023-02-24T01:22:48;18.80;54.10
45843;DHT22;31563;51.744;8.252;2023-02-24T01:25:18;18.80;54.10
45843;DHT22;31563;51.744;8.252;2023-02-24T01:27:47;18.80;54.10
45843;DHT22;31563;51.744;8.252;2023-02-24T01:30:16;18.80;54.00
45843;DHT22;31563;51.744;8.252;2023-02-24T01:32:46;18.70;53.90
45843;DHT22;31563;51.744;8.252;2023-02-24T01:35:15;18.70;53.90
45843;DHT22;31563;51.744;8.252;2023-02-24T01:37:43;18.70;53.90
45843;DHT22;31563;51.744;8.252;2023-02-24T01:40:13;18.70;54.00
45843;DHT22;31563;51.744;8.252;2023-02-24T01:42:47;18.70;54.00
45843;DHT22;31563;51.744;8.252;2023-02-24T01:45:21;18.60;53.90
45843;DHT22;31563;51.744;8.252;2023-02-24T01:47:55;18.60;53.90
45843;DHT22;31563;51.744;8.252;2023-02-24T01:50:24;18.60;53.90
45843;DHT22;31563;51.744;8.252;2023-02-24T01:52:57;18.60;54.50
45843;DHT22;31563;51.744;8.252;2023-02-24T01:55:29;18.50;53.80
45843;DHT22;31563;51.744;8.252;2023-02-24T01:58:01;18.50;53.90
45843;DHT22;31563;51.744;8.252;2023-02-24T02:00:30;18.50;53.80
45843;DHT22;31563;51.744;8.252;2023-02-24T02:03:14;18.50;53.90
45843;DHT22;31563;51.744;8.252;2023-02-24T02:05:45;18.50;53.90
45843;DHT22;31563;51.744;8.252;2023-02-24T02:08:16;18.50;53.80
45843;DHT22;31563;51.744;8.252;2023-02-24T02:10:46;18.50;53.80
45843;DHT22;31563;51.744;8.252;2023-02-24T02:13:16;18.50;53.90
45843;DHT22;31563;51.744;8.252;2023-02-24T02:15:54;18.50;53.80
45843;DHT22;31563;51.744;8.252;2023-02-24T02:18:34;18.50;53.80
45843;DHT22;31563;51.744;8.252;2023-02-24T02:21:32;18.50;53.80
45843;DHT22;31563;51.744;8.252;2023-02-24T02:24:26;18.50;53.90
45843;DHT22;31563;51.744;8.252;2023-02-24T02:27:15;18.50;53.70
45843;DHT22;31563;51.744;8.252;2023-02-24T02:30:16;18.50;53.80
45843;DHT22;31563;51.744;8.252;2023-02-24T02:35:38;18.40;53.60
45843;DHT22;31563;51.744;8.252;2023-02-24T02:38:12;18.40;53.70
45843;DHT22;31563;51.744;8.252;2023-02-24T02:40:47;18.40;53.50
45843;DHT22;31563;51.744;8.252;2023-02-24T02:43:26;18.40;53.60
45843;DHT22;31563;51.744;8.252;2023-02-24T02:45:59;18.40;53.60
45843;DHT22;31563;51.744;8.252;2023-02-24T02:48:32;18.30;53.50
45843;DHT22;31563;51.744;8.252;2023-02-24T02:51:06;18.30;53.50
45843;DHT22;31563;51.744;8.252;2023-02-24T02:53:41;18.30;53.50
45843;DHT22;31563;51.744;8.252;2023-02-24T02:56:14;18.30;53.50
45843;DHT22;31563;51.744;8.252;2023-02-24T02:58:47;18.30;53.50
45843;DHT22;31563;51.744;8.252;2023-02-24T03:01:21;18.30;53.50
45843;DHT22;31563;51.744;8.252;2023-02-24T03:03:52;18.30;53.50
45843;DHT22;31563;51.744;8.252;2023-02-24T03:06:24;18.30;53.50
45843;DHT22;31563;51.744;8.252;2023-02-24T03:08:58;18.30;53.50
45843;DHT22;31563;51.744;8.252;2023-02-24T03:11:26;18.30;53.50
45843;DHT22;31563;51.744;8.252;2023-02-24T03:13:58;18.20;54.00
45843;DHT22;31563;51.744;8.252;2023-02-24T03:16:28;18.30;53.40
45843;DHT22;31563;51.744;8.252;2023-02-24T03:18:59;18.30;53.50
45843;DHT22;31563;51.744;8.252;2023-02-24T03:21:33;18.20;53.40
45843;DHT22;31563;51.744;8.252;2023-02-24T03:24:04;18.30;53.40
45843;DHT22;31563;51.744;8.252;2023-02-24T03:26:39;18.20;53.50
45843;DHT22;31563;51.744;8.252;2023-02-24T03:29:14;18.20;53.40
45843;DHT22;31563;51.744;8.252;2023-02-24T03:31:47;18.20;53.30
45843;DHT22;31563;51.744;8.252;2023-02-24T03:34:21;18.20;53.30
45843;DHT22;31563;51.744;8.252;2023-02-24T03:36:56;18.20;53.30
45843;DHT22;31563;51.744;8.252;2023-02-24T03:39:24;18.20;53.20
45843;DHT22;31563;51.744;8.252;2023-02-24T03:41:55;18.20;53.30
45843;DHT22;31563;51.744;8.252;2023-02-24T03:44:25;18.10;53.20
45843;DHT22;31563;51.744;8.252;2023-02-24T03:46:54;18.10;53.20
45843;DHT22;31563;51.744;8.252;2023-02-24T03:49:22;18.10;53.10
45843;DHT22;31563;51.744;8.252;2023-02-24T03:52:11;18.10;53.20
45843;DHT22;31563;51.744;8.252;2023-02-24T03:55:01;18.10;53.20
45843;DHT22;31563;51.744;8.252;2023-02-24T03:57:41;18.10;53.20
45843;DHT22;31563;51.744;8.252;2023-02-24T04:00:26;18.00;53.20
45843;DHT22;31563;51.744;8.252;2023-02-24T04:03:09;18.00;53.10
45843;DHT22;31563;51.744;8.252;2023-02-24T04:05:44;18.00;53.20
45843;DHT22;31563;51.744;8.252;2023-02-24T04:08:16;18.00;53.20
45843;DHT22;31563;51.744;8.252;2023-02-24T04:10:50;18.00;53.10
45843;DHT22;31563;51.744;8.252;2023-02-24T04:13:25;18.00;53.20
45843;DHT22;31563;51.744;8.252;2023-02-24T04:16:00;18.00;53.10
45843;DHT22;31563;51.744;8.252;2023-02-24T04:18:30;18.00;53.10
45843;DHT22;31563;51.744;8.252;2023-02-24T04:21:01;18.00;53.10
45843;DHT22;31563;51.744;8.252;2023-02-24T04:23:34;18.00;53.20
45843;DHT22;31563;51.744;8.252;2023-02-24T04:26:05;18.00;53.10
45843;DHT22;31563;51.744;8.252;2023-02-24T04:28:34;18.00;53.10
45843;DHT22;31563;51.744;8.252;2023-02-24T04:31:05;18.00;53.00
45843;DHT22;31563;51.744;8.252;2023-02-24T04:33:36;18.00;53.60
45843;DHT22;31563;51.744;8.252;2023-02-24T04:36:05;18.00;52.90
45843;DHT22;31563;51.744;8.252;2023-02-24T04:38:36;18.00;53.60
45843;DHT22;31563;51.744;8.252;2023-02-24T04:41:04;18.00;53.00
45843;DHT22;31563;51.744;8.252;2023-02-24T04:43:32;18.00;52.90
45843;DHT22;31563;51.744;8.252;2023-02-24T04:46:01;17.90;52.90
45843;DHT22;31563;51.744;8.252;2023-02-24T04:48:33;17.90;53.00
45843;DHT22;31563;51.744;8.252;2023-02-24T04:51:01;18.00;53.00
45843;DHT22;31563;51.744;8.252;2023-02-24T04:53:32;18.00;53.10
45843;DHT22;31563;51.744;8.252;2023-02-24T04:56:03;18.10;53.10
45843;DHT22;31563;51.744;8.252;2023-02-24T04:58:36;18.20;52.90
45843;DHT22;31563;51.744;8.252;2023-02-24T05:01:07;18.20;52.70
45843;DHT22;31563;51.744;8.252;2023-02-24T05:03:38;18.30;52.60
45843;DHT22;31563;51.744;8.252;2023-02-24T05:06:13;18.30;52.50
45843;DHT22;31563;51.744;8.252;2023-02-24T05:08:42;18.40;52.50
45843;DHT22;31563;51.744;8.252;2023-02-24T05:11:13;18.40;52.30
45843;DHT22;31563;51.744;8.252;2023-02-24T05:13:43;18.40;52.30
45843;DHT22;31563;51.744;8.252;2023-02-24T05:16:13;18.50;52.20
45843;DHT22;31563;51.744;8.252;2023-02-24T05:18:42;18.40;51.50
45843;DHT22;31563;51.744;8.252;2023-02-24T05:21:12;18.40;50.90
45843;DHT22;31563;51.744;8.252;2023-02-24T05:23:59;18.40;51.10
45843;DHT22;31563;51.744;8.252;2023-02-24T05:26:35;18.40;50.80
45843;DHT22;31563;51.744;8.252;2023-02-24T05:29:04;18.40;51.00
45843;DHT22;31563;51.744;8.252;2023-02-24T05:31:33;18.50;50.60
45843;DHT22;31563;51.744;8.252;2023-02-24T05:34:04;18.50;50.60
45843;DHT22;31563;51.744;8.252;2023-02-24T05:36:34;18.50;50.60
45843;DHT22;31563;51.744;8.252;2023-02-24T05:39:05;18.50;50.60
45843;DHT22;31563;51.744;8.252;2023-02-24T05:41:40;18.50;50.50
45843;DHT22;31563;51.744;8.252;2023-02-24T05:44:11;18.60;50.30
45843;DHT22;31563;51.744;8.252;2023-02-24T05:46:43;18.60;50.00
45843;DHT22;31563;51.744;8.252;2023-02-24T05:49:13;18.60;50.10
45843;DHT22;31563;51.744;8.252;2023-02-24T05:51:42;18.60;49.90
45843;DHT22;31563;51.744;8.252;2023-02-24T05:54:22;18.60;50.10
45843;DHT22;31563;51.744;8.252;2023-02-24T05:56:53;18.60;50.10
45843;DHT22;31563;51.744;8.252;2023-02-24T05:59:23;18.60;50.00
45843;DHT22;31563;51.744;8.252;2023-02-24T06:01:51;18.60;50.00
45843;DHT22;31563;51.744;8.252;2023-02-24T06:04:20;18.70;50.00
45843;DHT22;31563;51.744;8.252;2023-02-24T06:07:06;18.70;50.10
45843;DHT22;31563;51.744;8.252;2023-02-24T06:09:39;18.60;49.20
45843;DHT22;31563;51.744;8.252;2023-02-24T06:12:10;18.50;49.30
45843;DHT22;31563;51.744;8.252;2023-02-24T06:14:40;18.60;49.60
45843;DHT22;31563;51.744;8.252;2023-02-24T06:17:08;18.60;49.60
45843;DHT22;31563;51.744;8.252;2023-02-24T06:19:37;18.60;49.60
45843;DHT22;31563;51.744;8.252;2023-02-24T06:22:08;18.60;49.60
45843;DHT22;31563;51.744;8.252;2023-02-24T06:24:39;18.70;49.60
45843;DHT22;31563;51.744;8.252;2023-02-24T06:27:11;18.70;49.60
45843;DHT22;31563;51.744;8.252;2023-02-24T06:29:45;18.70;49.40
45843;DHT22;31563;51.744;8.252;2023-02-24T06:32:16;18.70;49.40
45843;DHT22;31563;51.744;8.252;2023-02-24T06:34:44;18.70;50.10
45843;DHT22;31563;51.744;8.252;2023-02-24T06:37:14;18.70;49.40
45843;DHT22;31563;51.744;8.252;2023-02-24T06:39:44;18.70;49.40
45843;DHT22;31563;51.744;8.252;2023-02-24T06:42:14;18.70;49.30
45843;DHT22;31563;51.744;8.252;2023-02-24T06:44:43;18.80;49.30
45843;DHT22;31563;51.744;8.252;2023-02-24T06:47:12;18.80;49.20
45843;DHT22;31563;51.744;8.252;2023-02-24T06:49:42;18.80;48.90
45843;DHT22;31563;51.744;8.252;2023-02-24T06:52:10;18.80;48.90
45843;DHT22;31563;51.744;8.252;2023-02-24T06:54:46;18.80;49.00
45843;DHT22;31563;51.744;8.252;2023-02-24T06:57:16;18.80;48.80
45843;DHT22;31563;51.744;8.252;2023-02-24T06:59:46;18.90;48.60
45843;DHT22;31563;51.744;8.252;2023-02-24T07:02:14;18.80;48.50
45843;DHT22;31563;51.744;8.252;2023-02-24T07:04:44;18.90;48.70
45843;DHT22;31563;51.744;8.252;2023-02-24T07:07:13;18.90;48.60
45843;DHT22;31563;51.744;8.252;2023-02-24T07:09:43;18.90;48.50
45843;DHT22;31563;51.744;8.252;2023-02-24T07:12:11;19.00;48.80
45843;DHT22;31563;51.744;8.252;2023-02-24T07:14:48;19.00;48.40
45843;DHT22;31563;51.744;8.252;2023-02-24T07:17:17;19.00;48.10
45843;DHT22;31563;51.744;8.252;2023-02-24T07:19:45;19.00;48.20
45843;DHT22;31563;51.744;8.252;2023-02-24T07:22:13;19.10;47.90
45843;DHT22;31563;51.744;8.252;2023-02-24T07:24:43;19.10;47.90
45843;DHT22;31563;51.744;8.252;2023-02-24T07:27:13;19.10;47.80
45843;DHT22;31563;51.744;8.252;2023-02-24T07:29:50;19.20;47.90
45843;DHT22;31563;51.744;8.252;2023-02-24T07:32:20;19.20;47.70
45843;DHT22;31563;51.744;8.252;2023-02-24T07:34:49;19.20;47.80
45843;DHT22;31563;51.744;8.252;2023-02-24T07:37:17;19.30;47.70
45843;DHT22;31563;51.744;8.252;2023-02-24T07:39:46;19.20;47.50
45843;DHT22;31563;51.744;8.252;2023-02-24T07:42:14;19.30;47.40
45843;DHT22;31563;51.744;8.252;2023-02-24T07:44:42;19.30;47.30
45843;DHT22;31563;51.744;8.252;2023-02-24T07:47:14;19.30;47.30
45843;DHT22;31563;51.744;8.252;2023-02-24T07:49:42;19.30;47.00
45843;DHT22;31563;51.744;8.252;2023-02-24T07:52:11;19.30;47.20
45843;DHT22;31563;51.744;8.252;2023-02-24T07:54:39;19.30;47.00
45843;DHT22;31563;51.744;8.252;2023-02-24T07:57:07;19.40;47.00
45843;DHT22;31563;51.744;8.252;2023-02-24T07:59:41;19.40;46.80
45843;DHT22;31563;51.744;8.252;2023-02-24T08:02:15;19.40;46.80
45843;DHT22;31563;51.744;8.252;2023-02-24T08:04:44;19.40;46.80
45843;DHT22;31563;51.744;8.252;2023-02-24T08:07:16;19.40;46.60
45843;DHT22;31563;51.744;8.252;2023-02-24T08:09:51;19.50;46.80
45843;DHT22;31563;51.744;8.252;2023-02-24T08:12:51;19.50;46.50
45843;DHT22;31563;51.744;8.252;2023-02-24T08:15:23;19.50;46.40
45843;DHT22;31563;51.744;8.252;2023-02-24T08:17:56;19.50;46.30
45843;DHT22;31563;51.744;8.252;2023-02-24T08:20:27;19.50;46.30
45843;DHT22;31563;51.744;8.252;2023-02-24T08:23:02;19.50;46.30
45843;DHT22;31563;51.744;8.252;2023-02-24T08:25:32;19.50;46.20
45843;DHT22;31563;51.744;8.252;2023-02-24T08:28:05;19.50;46.00
45843;DHT22;31563;51.744;8.252;2023-02-24T08:30:39;19.50;46.00
45843;DHT22;31563;51.744;8.252;2023-02-24T08:33:17;19.50;46.00
45843;DHT22;31563;51.744;8.252;2023-02-24T08:35:50;19.50;45.60
45843;DHT22;31563;51.744;8.252;2023-02-24T08:38:20;19.50;45.80
45843;DHT22;31563;51.744;8.252;2023-02-24T08:40:52;19.50;45.70
45843;DHT22;31563;51.744;8.252;2023-02-24T08:43:26;19.50;45.70
45843;DHT22;31563;51.744;8.252;2023-02-24T08:46:04;19.60;46.00
45843;DHT22;31563;51.744;8.252;2023-02-24T08:48:41;19.60;45.60
45843;DHT22;31563;51.744;8.252;2023-02-24T08:51:13;19.60;45.40
45843;DHT22;31563;51.744;8.252;2023-02-24T08:53:44;19.60;45.50
45843;DHT22;31563;51.744;8.252;2023-02-24T08:56:14;19.60;45.40
45843;DHT22;31563;51.744;8.252;2023-02-24T08:58:52;19.60;45.60
45843;DHT22;31563;51.744;8.252;2023-02-24T09:01:25;19.60;45.60
45843;DHT22;31563;51.744;8.252;2023-02-24T09:03:57;19.60;45.20
45843;DHT22;31563;51.744;8.252;2023-02-24T09:06:34;19.60;45.30
45843;DHT22;31563;51.744;8.252;2023-02-24T09:09:04;19.60;45.40
45843;DHT22;31563;51.744;8.252;2023-02-24T09:11:45;19.70;45.30
45843;DHT22;31563;51.744;8.252;2023-02-24T09:14:16;19.70;45.30
45843;DHT22;31563;51.744;8.252;2023-02-24T09:16:54;19.70;45.20
45843;DHT22;31563;51.744;8.252;2023-02-24T09:19:39;19.70;45.50
45843;DHT22;31563;51.744;8.252;2023-02-24T09:22:30;19.80;45.10
45843;DHT22;31563;51.744;8.252;2023-02-24T09:25:02;19.80;44.90
45843;DHT22;31563;51.744;8.252;2023-02-24T09:27:49;19.80;44.90
45843;DHT22;31563;51.744;8.252;2023-02-24T09:30:24;19.80;44.80
45843;DHT22;31563;51.744;8.252;2023-02-24T09:33:07;19.70;44.80
45843;DHT22;31563;51.744;8.252;2023-02-24T09:35:53;19.70;44.70
45843;DHT22;31563;51.744;8.252;2023-02-24T09:38:29;19.60;44.70
45843;DHT22;31563;51.744;8.252;2023-02-24T09:41:35;19.60;44.70
45843;DHT22;31563;51.744;8.252;2023-02-24T09:44:27;19.60;44.80
45843;DHT22;31563;51.744;8.252;2023-02-24T09:47:04;19.60;44.60
45843;DHT22;31563;51.744;8.252;2023-02-24T09:49:46;19.60;44.70
45843;DHT22;31563;51.744;8.252;2023-02-24T09:52:17;19.60;44.70
45843;DHT22;31563;51.744;8.252;2023-02-24T09:54:48;19.60;44.50
45843;DHT22;31563;51.744;8.252;2023-02-24T09:57:41;19.60;44.50
45843;DHT22;31563;51.744;8.252;2023-02-24T10:00:39;19.60;44.30
45843;DHT22;31563;51.744;8.252;2023-02-24T10:03:15;19.70;44.50
45843;DHT22;31563;51.744;8.252;2023-02-24T10:06:16;19.70;44.40
45843;DHT22;31563;51.744;8.252;2023-02-24T10:08:54;19.70;44.40
45843;DHT22;31563;51.744;8.252;2023-02-24T10:11:26;19.70;44.30
45843;DHT22;31563;51.744;8.252;2023-02-24T10:14:03;19.70;44.30
45843;DHT22;31563;51.744;8.252;2023-02-24T10:16:39;19.70;44.80
45843;DHT22;31563;51.744;8.252;2023-02-24T10:19:21;19.70;44.00
45843;DHT22;31563;51.744;8.252;2023-02-24T10:21:57;19.70;43.90
45843;DHT22;31563;51.744;8.252;2023-02-24T10:24:34;19.70;44.00
45843;DHT22;31563;51.744;8.252;2023-02-24T10:27:10;19.70;43.90
45843;DHT22;31563;51.744;8.252;2023-02-24T10:29:52;19.80;44.40
45843;DHT22;31563;51.744;8.252;2023-02-24T10:32:36;19.90;44.70
45843;DHT22;31563;51.744;8.252;2023-02-24T10:35:12;20.00;44.90
45843;DHT22;31563;51.744;8.252;2023-02-24T10:37:42;20.10;44.90
45843;DHT22;31563;51.744;8.252;2023-02-24T10:40:14;20.20;45.30
45843;DHT22;31563;51.744;8.252;2023-02-24T10:43:03;20.30;45.60
45843;DHT22;31563;51.744;8.252;2023-02-24T10:45:39;20.40;45.80
45843;DHT22;31563;51.744;8.252;2023-02-24T10:48:17;20.40;45.70
45843;DHT22;31563;51.744;8.252;2023-02-24T10:51:11;20.40;45.60
45843;DHT22;31563;51.744;8.252;2023-02-24T10:53:47;20.40;45.50
45843;DHT22;31563;51.744;8.252;2023-02-24T10:56:40;20.40;45.40
45843;DHT22;31563;51.744;8.252;2023-02-24T10:59:12;20.30;45.40
45843;DHT22;31563;51.744;8.252;2023-02-24T11:02:02;20.30;45.40
45843;DHT22;31563;51.744;8.252;2023-02-24T11:04:52;20.30;45.40
45843;DHT22;31563;51.744;8.252;2023-02-24T11:07:35;20.40;45.50
45843;DHT22;31563;51.744;8.252;2023-02-24T11:10:21;20.50;45.60
45843;DHT22;31563;51.744;8.252;2023-02-24T11:13:00;20.70;46.60
45843;DHT22;31563;51.744;8.252;2023-02-24T11:15:47;20.80;43.90
45843;DHT22;31563;51.744;8.252;2023-02-24T11:18:34;20.80;44.50
45843;DHT22;31563;51.744;8.252;2023-02-24T11:21:04;20.90;44.50
45843;DHT22;31563;51.744;8.252;2023-02-24T11:23:34;20.90;44.00
45843;DHT22;31563;51.744;8.252;2023-02-24T11:26:12;20.90;43.90
45843;DHT22;31563;51.744;8.252;2023-02-24T11:28:55;20.90;43.90
45843;DHT22;31563;51.744;8.252;2023-02-24T11:31:37;20.80;43.90
45843;DHT22;31563;51.744;8.252;2023-02-24T11:34:12;20.80;43.90
45843;DHT22;31563;51.744;8.252;2023-02-24T11:36:51;20.80;43.90
45843;DHT22;31563;51.744;8.252;2023-02-24T11:39:38;20.90;43.80
45843;DHT22;31563;51.744;8.252;2023-02-24T11:42:11;20.90;43.90
45843;DHT22;31563;51.744;8.252;2023-02-24T11:44:49;20.90;43.80
45843;DHT22;31563;51.744;8.252;2023-02-24T11:47:21;20.80;43.60
45843;DHT22;31563;51.744;8.252;2023-02-24T11:49:57;20.80;43.70
45843;DHT22;31563;51.744;8.252;2023-02-24T11:52:34;20.70;43.60
45843;DHT22;31563;51.744;8.252;2023-02-24T11:55:26;20.70;43.50
45843;DHT22;31563;51.744;8.252;2023-02-24T11:57:58;20.60;43.50
45843;DHT22;31563;51.744;8.252;2023-02-24T12:00:32;20.50;43.50
45843;DHT22;31563;51.744;8.252;2023-02-24T12:03:06;20.50;43.60
45843;DHT22;31563;51.744;8.252;2023-02-24T12:05:42;20.40;43.50
45843;DHT22;31563;51.744;8.252;2023-02-24T12:08:23;20.40;43.70
45843;DHT22;31563;51.744;8.252;2023-02-24T12:11:00;20.40;43.80
45843;DHT22;31563;51.744;8.252;2023-02-24T12:13:37;20.40;43.80
45843;DHT22;31563;51.744;8.252;2023-02-24T12:16:12;20.40;43.90
45843;DHT22;31563;51.744;8.252;2023-02-24T12:18:45;20.40;42.40
45843;DHT22;31563;51.744;8.252;2023-02-24T12:21:20;20.00;41.80
45843;DHT22;31563;51.744;8.252;2023-02-24T12:23:51;20.00;41.90
45843;DHT22;31563;51.744;8.252;2023-02-24T12:26:22;20.00;42.60
45843;DHT22;31563;51.744;8.252;2023-02-24T12:29:14;20.00;42.30
45843;DHT22;31563;51.744;8.252;2023-02-24T12:31:53;20.00;42.40
45843;DHT22;31563;51.744;8.252;2023-02-24T12:34:33;20.00;42.10
45843;DHT22;31563;51.744;8.252;2023-02-24T12:37:27;20.00;42.40
45843;DHT22;31563;51.744;8.252;2023-02-24T12:40:02;20.10;42.30
45843;DHT22;31563;51.744;8.252;2023-02-24T12:42:39;20.10;42.30
45843;DHT22;31563;51.744;8.252;2023-02-24T12:45:16;20.10;42.20
45843;DHT22;31563;51.744;8.252;2023-02-24T12:48:00;20.10;42.10
45843;DHT22;31563;51.744;8.252;2023-02-24T12:50:41;20.10;42.20
45843;DHT22;31563;51.744;8.252;2023-02-24T12:53:18;20.00;42.00
45843;DHT22;31563;51.744;8.252;2023-02-24T12:55:54;20.00;42.20
45843;DHT22;31563;51.744;8.252;2023-02-24T12:58:27;20.10;42.30
45843;DHT22;31563;51.744;8.252;2023-02-24T13:01:06;20.00;42.20
45843;DHT22;31563;51.744;8.252;2023-02-24T13:03:49;20.00;42.20
45843;DHT22;31563;51.744;8.252;2023-02-24T13:06:26;20.00;42.20
45843;DHT22;31563;51.744;8.252;2023-02-24T13:09:04;19.90;42.10
45843;DHT22;31563;51.744;8.252;2023-02-24T13:11:41;19.90;42.00
45843;DHT22;31563;51.744;8.252;2023-02-24T13:14:18;19.80;42.00
45843;DHT22;31563;51.744;8.252;2023-02-24T13:16:48;19.80;42.20
45843;DHT22;31563;51.744;8.252;2023-02-24T13:19:27;19.80;42.30
45843;DHT22;31563;51.744;8.252;2023-02-24T13:22:00;19.80;42.30
45843;DHT22;31563;51.744;8.252;2023-02-24T13:24:30;19.80;42.30
45843;DHT22;31563;51.744;8.252;2023-02-24T13:27:06;19.80;42.40
45843;DHT22;31563;51.744;8.252;2023-02-24T13:29:47;19.80;42.30
45843;DHT22;31563;51.744;8.252;2023-02-24T13:32:37;19.80;42.40
45843;DHT22;31563;51.744;8.252;2023-02-24T13:35:32;19.70;42.30
45843;DHT22;31563;51.744;8.252;2023-02-24T13:38:09;19.80;42.50
45843;DHT22;31563;51.744;8.252;2023-02-24T13:40:48;19.80;42.50
45843;DHT22;31563;51.744;8.252;2023-02-24T13:43:23;19.80;42.50
45843;DHT22;31563;51.744;8.252;2023-02-24T13:45:57;19.70;42.50
45843;DHT22;31563;51.744;8.252;2023-02-24T13:48:49;19.70;42.60
45843;DHT22;31563;51.744;8.252;2023-02-24T13:57:55;19.80;42.90
45843;DHT22;31563;51.744;8.252;2023-02-24T14:00:32;19.90;42.80
45843;DHT22;31563;51.744;8.252;2023-02-24T14:03:09;19.90;42.70
45843;DHT22;31563;51.744;8.252;2023-02-24T14:05:40;20.00;42.70
45843;DHT22;31563;51.744;8.252;2023-02-24T14:08:17;20.00;42.70
45843;DHT22;31563;51.744;8.252;2023-02-24T14:10:51;20.10;42.70
45843;DHT22;31563;51.744;8.252;2023-02-24T14:13:23;20.10;42.70
45843;DHT22;31563;51.744;8.252;2023-02-24T14:15:54;20.00;42.60
45843;DHT22;31563;51.744;8.252;2023-02-24T14:18:24;20.00;42.70
45843;DHT22;31563;51.744;8.252;2023-02-24T14:20:54;19.90;42.70
45843;DHT22;31563;51.744;8.252;2023-02-24T14:23:26;19.90;42.80
45843;DHT22;31563;51.744;8.252;2023-02-24T14:25:57;19.90;42.80
45843;DHT22;31563;51.744;8.252;2023-02-24T14:28:28;19.90;42.90
45843;DHT22;31563;51.744;8.252;2023-02-24T14:30:58;19.90;42.90
45843;DHT22;31563;51.744;8.252;2023-02-24T14:33:30;20.00;43.00
45843;DHT22;31563;51.744;8.252;2023-02-24T14:36:02;19.90;42.80
45843;DHT22;31563;51.744;8.252;2023-02-24T14:38:34;19.90;42.90
45843;DHT22;31563;51.744;8.252;2023-02-24T14:41:04;19.90;42.90
45843;DHT22;31563;51.744;8.252;2023-02-24T14:43:38;19.80;42.90
45843;DHT22;31563;51.744;8.252;2023-02-24T14:46:07;19.80;42.90
45843;DHT22;31563;51.744;8.252;2023-02-24T14:48:35;19.80;43.00
45843;DHT22;31563;51.744;8.252;2023-02-24T14:51:06;19.80;43.10
45843;DHT22;31563;51.744;8.252;2023-02-24T14:53:42;19.80;43.20
45843;DHT22;31563;51.744;8.252;2023-02-24T14:56:12;19.80;43.00
45843;DHT22;31563;51.744;8.252;2023-02-24T14:58:43;19.90;43.20
45843;DHT22;31563;51.744;8.252;2023-02-24T15:01:18;19.90;43.20
45843;DHT22;31563;51.744;8.252;2023-02-24T15:03:51;19.90;43.20
45843;DHT22;31563;51.744;8.252;2023-02-24T15:06:23;19.90;43.00
45843;DHT22;31563;51.744;8.252;2023-02-24T15:08:57;19.90;43.20
45843;DHT22;31563;51.744;8.252;2023-02-24T15:11:28;19.90;43.10
45843;DHT22;31563;51.744;8.252;2023-02-24T15:13:59;19.90;43.10
45843;DHT22;31563;51.744;8.252;2023-02-24T15:16:32;19.80;43.10
45843;DHT22;31563;51.744;8.252;2023-02-24T15:19:16;19.80;43.00
45843;DHT22;31563;51.744;8.252;2023-02-24T15:21:46;19.80;43.10
45843;DHT22;31563;51.744;8.252;2023-02-24T15:24:18;19.80;43.20
45843;DHT22;31563;51.744;8.252;2023-02-24T15:26:51;19.80;43.30
45843;DHT22;31563;51.744;8.252;2023-02-24T15:29:21;19.70;43.20
45843;DHT22;31563;51.744;8.252;2023-02-24T15:31:51;19.70;43.40
45843;DHT22;31563;51.744;8.252;2023-02-24T15:34:23;19.70;43.40
45843;DHT22;31563;51.744;8.252;2023-02-24T15:36:54;19.70;43.50
45843;DHT22;31563;51.744;8.252;2023-02-24T15:39:27;19.60;43.40
45843;DHT22;31563;51.744;8.252;2023-02-24T15:42:06;19.60;43.40
45843;DHT22;31563;51.744;8.252;2023-02-24T15:44:35;19.60;43.40
45843;DHT22;31563;51.744;8.252;2023-02-24T15:47:18;19.60;43.40
45843;DHT22;31563;51.744;8.252;2023-02-24T15:49:47;19.50;43.40
45843;DHT22;31563;51.744;8.252;2023-02-24T15:52:18;19.50;43.60
45843;DHT22;31563;51.744;8.252;2023-02-24T15:54:49;19.50;43.70
45843;DHT22;31563;51.744;8.252;2023-02-24T15:57:18;19.50;43.70
45843;DHT22;31563;51.744;8.252;2023-02-24T15:59:47;19.50;43.70
45843;DHT22;31563;51.744;8.252;2023-02-24T16:02:17;19.50;43.70
45843;DHT22;31563;51.744;8.252;2023-02-24T16:04:47;19.50;43.70
45843;DHT22;31563;51.744;8.252;2023-02-24T16:07:18;19.50;43.70
45843;DHT22;31563;51.744;8.252;2023-02-24T16:09:49;19.50;43.70
45843;DHT22;31563;51.744;8.252;2023-02-24T16:12:21;19.50;43.10
45843;DHT22;31563;51.744;8.252;2023-02-24T16:14:50;19.40;43.80
45843;DHT22;31563;51.744;8.252;2023-02-24T16:17:29;19.30;43.20
45843;DHT22;31563;51.744;8.252;2023-02-24T16:19:58;19.20;43.40
45843;DHT22;31563;51.744;8.252;2023-02-24T16:22:27;19.20;43.70